sensor_id;sensor_type;location;lat;lon;timestamp;P1;durP1;ratioP1;P2;durP2;ratioP2
25721;SDS011;13578;53.450;15.496;2023-04-24T00:00:01;3.38;;;3.03;;
25721;SDS011;13578;53.450;15.496;2023-04-24T00:03:12;23.63;;;5.22;;
25721;SDS011;13578;53.450;15.496;2023-04-24T00:06:14;26.00;;;5.15;;
25721;SDS011;13578;53.450;15.496;2023-04-24T00:09:16;5.95;;;4.10;;
25721;SDS011;13578;53.450;15.496;2023-04-24T00:12:17;94.95;;;7.95;;
25721;SDS011;13578;53.450;15.496;2023-04-24T00:15:18;37.70;;;8.65;;
25721;SDS011;13578;53.450;15.496;2023-04-24T00:18:18;69.93;;;8.25;;
25721;SDS011;13578;53.450;15.496;2023-04-24T00:21:19;24.85;;;4.28;;
25721;SDS011;13578;53.450;15.496;2023-04-24T00:24:20;6.90;;;4.30;;
25721;SDS011;13578;53.450;15.496;2023-04-24T00:27:21;15.90;;;4.65;;
25721;SDS011;13578;53.450;15.496;2023-04-24T00:30:21;10.25;;;4.43;;
25721;SDS011;13578;53.450;15.496;2023-04-24T00:33:22;6.15;;;4.25;;
25721;SDS011;13578;53.450;15.496;2023-04-24T00:36:23;4.88;;;3.83;;
25721;SDS011;13578;53.450;15.496;2023-04-24T00:39:23;4.38;;;3.70;;
25721;SDS011;13578;53.450;15.496;2023-04-24T00:42:24;5.45;;;4.45;;
25721;SDS011;13578;53.450;15.496;2023-04-24T00:45:25;13.77;;;5.18;;
25721;SDS011;13578;53.450;15.496;2023-04-24T00:48:26;32.75;;;4.68;;
25721;SDS011;13578;53.450;15.496;2023-04-24T00:51:27;44.10;;;6.50;;
25721;SDS011;13578;53.450;15.496;2023-04-24T00:54:28;149.85;;;15.82;;
25721;SDS011;13578;53.450;15.496;2023-04-24T00:57:28;37.72;;;4.80;;
25721;SDS011;13578;53.450;15.496;2023-04-24T01:00:30;14.45;;;4.03;;
25721;SDS011;13578;53.450;15.496;2023-04-24T01:03:31;6.38;;;4.18;;
25721;SDS011;13578;53.450;15.496;2023-04-24T01:06:31;9.13;;;4.15;;
25721;SDS011;13578;53.450;15.496;2023-04-24T01:09:32;5.97;;;3.70;;
25721;SDS011;13578;53.450;15.496;2023-04-24T01:12:33;130.65;;;10.82;;
25721;SDS011;13578;53.450;15.496;2023-04-24T01:15:34;158.20;;;12.80;;
25721;SDS011;13578;53.450;15.496;2023-04-24T01:18:35;92.28;;;9.75;;
25721;SDS011;13578;53.450;15.496;2023-04-24T01:21:37;28.75;;;4.78;;
25721;SDS011;13578;53.450;15.496;2023-04-24T01:24:39;7.63;;;4.93;;
25721;SDS011;13578;53.450;15.496;2023-04-24T01:27:39;23.08;;;5.18;;
25721;SDS011;13578;53.450;15.496;2023-04-24T01:30:40;5.57;;;4.60;;
25721;SDS011;13578;53.450;15.496;2023-04-24T01:33:42;5.32;;;4.30;;
25721;SDS011;13578;53.450;15.496;2023-04-24T01:36:42;7.18;;;5.35;;
25721;SDS011;13578;53.450;15.496;2023-04-24T01:39:45;5.78;;;4.80;;
25721;SDS011;13578;53.450;15.496;2023-04-24T01:42:46;5.38;;;4.45;;
25721;SDS011;13578;53.450;15.496;2023-04-24T01:45:47;5.57;;;4.50;;
25721;SDS011;13578;53.450;15.496;2023-04-24T01:48:48;6.00;;;4.88;;
25721;SDS011;13578;53.450;15.496;2023-04-24T01:51:49;5.38;;;4.10;;
25721;SDS011;13578;53.450;15.496;2023-04-24T01:54:49;6.55;;;4.53;;
25721;SDS011;13578;53.450;15.496;2023-04-24T01:57:51;6.13;;;4.72;;
25721;SDS011;13578;53.450;15.496;2023-04-24T02:00:55;5.15;;;4.60;;
25721;SDS011;13578;53.450;15.496;2023-04-24T02:03:58;4.85;;;4.38;;
25721;SDS011;13578;53.450;15.496;2023-04-24T02:06:59;9.18;;;4.38;;
25721;SDS011;13578;53.450;15.496;2023-04-24T02:10:00;5.07;;;4.05;;
25721;SDS011;13578;53.450;15.496;2023-04-24T02:13:00;4.82;;;3.83;;
25721;SDS011;13578;53.450;15.496;2023-04-24T02:16:01;4.88;;;3.97;;
25721;SDS011;13578;53.450;15.496;2023-04-24T02:19:02;6.63;;;5.05;;
25721;SDS011;13578;53.450;15.496;2023-04-24T02:22:03;7.80;;;5.32;;
25721;SDS011;13578;53.450;15.496;2023-04-24T02:25:04;11.77;;;5.75;;
25721;SDS011;13578;53.450;15.496;2023-04-24T02:28:05;12.80;;;6.28;;
25721;SDS011;13578;53.450;15.496;2023-04-24T02:31:06;14.50;;;6.85;;
25721;SDS011;13578;53.450;15.496;2023-04-24T02:34:06;11.65;;;7.25;;
25721;SDS011;13578;53.450;15.496;2023-04-24T02:37:07;15.75;;;7.70;;
25721;SDS011;13578;53.450;15.496;2023-04-24T02:40:08;19.55;;;7.50;;
25721;SDS011;13578;53.450;15.496;2023-04-24T02:43:09;17.80;;;9.73;;
25721;SDS011;13578;53.450;15.496;2023-04-24T02:46:10;25.33;;;8.90;;
25721;SDS011;13578;53.450;15.496;2023-04-24T02:49:10;70.22;;;13.18;;
25721;SDS011;13578;53.450;15.496;2023-04-24T02:52:12;20.60;;;8.15;;
25721;SDS011;13578;53.450;15.496;2023-04-24T02:55:13;25.40;;;9.65;;
25721;SDS011;13578;53.450;15.496;2023-04-24T02:58:13;52.70;;;10.75;;
25721;SDS011;13578;53.450;15.496;2023-04-24T03:01:14;22.73;;;7.55;;
25721;SDS011;13578;53.450;15.496;2023-04-24T03:04:15;11.23;;;6.53;;
25721;SDS011;13578;53.450;15.496;2023-04-24T03:07:16;10.25;;;6.68;;
25721;SDS011;13578;53.450;15.496;2023-04-24T03:10:17;23.27;;;9.40;;
25721;SDS011;13578;53.450;15.496;2023-04-24T03:13:17;25.10;;;9.50;;
25721;SDS011;13578;53.450;15.496;2023-04-24T03:16:18;45.28;;;12.00;;
25721;SDS011;13578;53.450;15.496;2023-04-24T03:19:18;19.52;;;9.13;;
25721;SDS011;13578;53.450;15.496;2023-04-24T03:22:19;9.85;;;6.55;;
25721;SDS011;13578;53.450;15.496;2023-04-24T03:25:20;9.60;;;7.43;;
25721;SDS011;13578;53.450;15.496;2023-04-24T03:28:20;11.68;;;7.53;;
25721;SDS011;13578;53.450;15.496;2023-04-24T03:31:21;15.77;;;6.68;;
25721;SDS011;13578;53.450;15.496;2023-04-24T03:34:22;8.82;;;6.13;;
25721;SDS011;13578;53.450;15.496;2023-04-24T03:37:22;11.95;;;6.38;;
25721;SDS011;13578;53.450;15.496;2023-04-24T03:40:23;10.57;;;6.78;;
25721;SDS011;13578;53.450;15.496;2023-04-24T03:43:24;14.60;;;6.85;;
25721;SDS011;13578;53.450;15.496;2023-04-24T03:46:24;10.25;;;6.63;;
25721;SDS011;13578;53.450;15.496;2023-04-24T03:49:25;10.55;;;6.97;;
25721;SDS011;13578;53.450;15.496;2023-04-24T03:52:25;9.30;;;6.07;;
25721;SDS011;13578;53.450;15.496;2023-04-24T03:55:26;7.88;;;5.85;;
25721;SDS011;13578;53.450;15.496;2023-04-24T03:58:27;11.48;;;6.15;;
25721;SDS011;13578;53.450;15.496;2023-04-24T04:01:27;12.93;;;6.40;;
25721;SDS011;13578;53.450;15.496;2023-04-24T04:04:28;7.65;;;5.60;;
25721;SDS011;13578;53.450;15.496;2023-04-24T04:07:29;13.15;;;5.93;;
25721;SDS011;13578;53.450;15.496;2023-04-24T04:10:30;13.40;;;7.35;;
25721;SDS011;13578;53.450;15.496;2023-04-24T04:13:31;11.43;;;6.88;;
25721;SDS011;13578;53.450;15.496;2023-04-24T04:16:32;11.93;;;6.32;;
25721;SDS011;13578;53.450;15.496;2023-04-24T04:19:32;15.98;;;6.72;;
25721;SDS011;13578;53.450;15.496;2023-04-24T04:22:33;15.57;;;7.18;;
25721;SDS011;13578;53.450;15.496;2023-04-24T04:25:34;10.15;;;7.00;;
25721;SDS011;13578;53.450;15.496;2023-04-24T04:28:35;14.32;;;6.72;;
25721;SDS011;13578;53.450;15.496;2023-04-24T04:31:35;9.88;;;6.53;;
25721;SDS011;13578;53.450;15.496;2023-04-24T04:34:36;19.00;;;6.82;;
25721;SDS011;13578;53.450;15.496;2023-04-24T04:37:37;27.98;;;9.20;;
25721;SDS011;13578;53.450;15.496;2023-04-24T04:40:38;12.68;;;7.63;;
25721;SDS011;13578;53.450;15.496;2023-04-24T04:43:38;64.32;;;11.00;;
25721;SDS011;13578;53.450;15.496;2023-04-24T04:46:40;43.35;;;8.30;;
25721;SDS011;13578;53.450;15.496;2023-04-24T04:49:42;25.50;;;7.93;;
25721;SDS011;13578;53.450;15.496;2023-04-24T04:52:43;42.58;;;11.00;;
25721;SDS011;13578;53.450;15.496;2023-04-24T04:55:43;52.28;;;9.02;;
25721;SDS011;13578;53.450;15.496;2023-04-24T04:58:44;23.98;;;8.02;;
25721;SDS011;13578;53.450;15.496;2023-04-24T05:01:45;14.23;;;6.25;;
25721;SDS011;13578;53.450;15.496;2023-04-24T05:04:45;22.40;;;7.75;;
25721;SDS011;13578;53.450;15.496;2023-04-24T05:07:46;11.80;;;7.13;;
25721;SDS011;13578;53.450;15.496;2023-04-24T05:10:46;23.98;;;7.88;;
25721;SDS011;13578;53.450;15.496;2023-04-24T05:13:47;62.28;;;10.45;;
25721;SDS011;13578;53.450;15.496;2023-04-24T05:16:47;29.17;;;9.07;;
25721;SDS011;13578;53.450;15.496;2023-04-24T05:19:48;34.35;;;10.13;;
25721;SDS011;13578;53.450;15.496;2023-04-24T05:22:49;15.20;;;7.93;;
25721;SDS011;13578;53.450;15.496;2023-04-24T05:25:49;42.30;;;11.00;;
25721;SDS011;13578;53.450;15.496;2023-04-24T05:28:50;53.42;;;12.05;;
25721;SDS011;13578;53.450;15.496;2023-04-24T05:31:51;31.17;;;9.38;;
25721;SDS011;13578;53.450;15.496;2023-04-24T05:34:52;27.13;;;10.18;;
25721;SDS011;13578;53.450;15.496;2023-04-24T05:37:53;105.30;;;14.57;;
25721;SDS011;13578;53.450;15.496;2023-04-24T05:40:53;30.90;;;11.30;;
25721;SDS011;13578;53.450;15.496;2023-04-24T05:43:54;46.17;;;10.93;;
25721;SDS011;13578;53.450;15.496;2023-04-24T05:46:54;13.32;;;9.45;;
25721;SDS011;13578;53.450;15.496;2023-04-24T05:49:55;18.50;;;10.80;;
25721;SDS011;13578;53.450;15.496;2023-04-24T05:52:56;15.65;;;10.43;;
25721;SDS011;13578;53.450;15.496;2023-04-24T05:56:01;17.80;;;10.95;;
25721;SDS011;13578;53.450;15.496;2023-04-24T05:59:02;19.63;;;11.15;;
25721;SDS011;13578;53.450;15.496;2023-04-24T06:02:03;22.38;;;12.40;;
25721;SDS011;13578;53.450;15.496;2023-04-24T06:05:04;24.83;;;12.40;;
25721;SDS011;13578;53.450;15.496;2023-04-24T06:08:05;21.55;;;12.18;;
25721;SDS011;13578;53.450;15.496;2023-04-24T06:11:06;21.63;;;12.57;;
25721;SDS011;13578;53.450;15.496;2023-04-24T06:14:07;20.40;;;12.60;;
25721;SDS011;13578;53.450;15.496;2023-04-24T06:17:07;20.30;;;11.05;;
25721;SDS011;13578;53.450;15.496;2023-04-24T06:20:08;20.80;;;13.38;;
25721;SDS011;13578;53.450;15.496;2023-04-24T06:23:10;21.17;;;12.93;;
25721;SDS011;13578;53.450;15.496;2023-04-24T06:26:11;20.38;;;13.50;;
25721;SDS011;13578;53.450;15.496;2023-04-24T06:29:12;19.35;;;12.18;;
25721;SDS011;13578;53.450;15.496;2023-04-24T06:32:13;19.30;;;12.48;;
25721;SDS011;13578;53.450;15.496;2023-04-24T06:35:13;24.83;;;12.52;;
25721;SDS011;13578;53.450;15.496;2023-04-24T06:38:14;22.33;;;12.80;;
25721;SDS011;13578;53.450;15.496;2023-04-24T06:41:16;20.75;;;12.27;;
25721;SDS011;13578;53.450;15.496;2023-04-24T06:44:16;19.88;;;13.13;;
25721;SDS011;13578;53.450;15.496;2023-04-24T06:47:17;18.33;;;12.88;;
25721;SDS011;13578;53.450;15.496;2023-04-24T06:50:18;17.90;;;13.63;;
25721;SDS011;13578;53.450;15.496;2023-04-24T06:53:19;17.25;;;11.85;;
25721;SDS011;13578;53.450;15.496;2023-04-24T06:56:20;17.70;;;11.10;;
25721;SDS011;13578;53.450;15.496;2023-04-24T06:59:20;17.27;;;11.23;;
25721;SDS011;13578;53.450;15.496;2023-04-24T07:02:21;14.88;;;10.82;;
25721;SDS011;13578;53.450;15.496;2023-04-24T07:05:22;23.05;;;11.55;;
25721;SDS011;13578;53.450;15.496;2023-04-24T07:08:23;21.83;;;13.48;;
25721;SDS011;13578;53.450;15.496;2023-04-24T07:11:25;18.48;;;12.82;;
25721;SDS011;13578;53.450;15.496;2023-04-24T07:14:29;20.35;;;11.27;;
25721;SDS011;13578;53.450;15.496;2023-04-24T07:17:29;18.58;;;11.18;;
25721;SDS011;13578;53.450;15.496;2023-04-24T07:20:30;18.23;;;12.05;;
25721;SDS011;13578;53.450;15.496;2023-04-24T07:23:31;18.42;;;12.27;;
25721;SDS011;13578;53.450;15.496;2023-04-24T07:26:31;21.40;;;11.18;;
25721;SDS011;13578;53.450;15.496;2023-04-24T07:29:32;14.25;;;8.40;;
25721;SDS011;13578;53.450;15.496;2023-04-24T07:32:32;12.15;;;7.80;;
25721;SDS011;13578;53.450;15.496;2023-04-24T07:35:33;13.70;;;6.57;;
25721;SDS011;13578;53.450;15.496;2023-04-24T07:38:34;13.85;;;7.38;;
25721;SDS011;13578;53.450;15.496;2023-04-24T07:41:35;11.18;;;6.10;;
25721;SDS011;13578;53.450;15.496;2023-04-24T07:44:36;13.57;;;5.82;;
25721;SDS011;13578;53.450;15.496;2023-04-24T07:47:36;10.13;;;6.40;;
25721;SDS011;13578;53.450;15.496;2023-04-24T07:50:39;9.18;;;5.55;;
25721;SDS011;13578;53.450;15.496;2023-04-24T07:53:40;12.02;;;4.35;;
25721;SDS011;13578;53.450;15.496;2023-04-24T07:56:43;8.30;;;4.82;;
25721;SDS011;13578;53.450;15.496;2023-04-24T07:59:43;8.15;;;4.47;;
25721;SDS011;13578;53.450;15.496;2023-04-24T08:02:44;7.65;;;4.07;;
25721;SDS011;13578;53.450;15.496;2023-04-24T08:05:45;5.38;;;3.65;;
25721;SDS011;13578;53.450;15.496;2023-04-24T08:08:46;8.98;;;4.25;;
25721;SDS011;13578;53.450;15.496;2023-04-24T08:11:46;10.55;;;4.25;;
25721;SDS011;13578;53.450;15.496;2023-04-24T08:14:47;10.02;;;3.78;;
25721;SDS011;13578;53.450;15.496;2023-04-24T08:17:47;8.68;;;4.80;;
25721;SDS011;13578;53.450;15.496;2023-04-24T08:20:48;6.78;;;4.00;;
25721;SDS011;13578;53.450;15.496;2023-04-24T08:23:49;6.70;;;4.22;;
25721;SDS011;13578;53.450;15.496;2023-04-24T08:26:50;9.25;;;4.43;;
25721;SDS011;13578;53.450;15.496;2023-04-24T08:29:52;6.25;;;4.03;;
25721;SDS011;13578;53.450;15.496;2023-04-24T08:32:54;7.35;;;4.15;;
25721;SDS011;13578;53.450;15.496;2023-04-24T08:35:54;7.70;;;3.55;;
25721;SDS011;13578;53.450;15.496;2023-04-24T08:38:55;7.07;;;4.18;;
25721;SDS011;13578;53.450;15.496;2023-04-24T08:41:56;7.22;;;4.35;;
25721;SDS011;13578;53.450;15.496;2023-04-24T08:44:56;15.13;;;4.50;;
25721;SDS011;13578;53.450;15.496;2023-04-24T08:47:58;8.45;;;4.93;;
25721;SDS011;13578;53.450;15.496;2023-04-24T08:50:59;9.88;;;4.97;;
25721;SDS011;13578;53.450;15.496;2023-04-24T08:54:02;7.40;;;3.80;;
25721;SDS011;13578;53.450;15.496;2023-04-24T08:57:04;7.07;;;4.18;;
25721;SDS011;13578;53.450;15.496;2023-04-24T09:00:08;4.68;;;3.40;;
25721;SDS011;13578;53.450;15.496;2023-04-24T09:03:09;6.10;;;3.63;;
25721;SDS011;13578;53.450;15.496;2023-04-24T09:06:10;6.20;;;3.90;;
25721;SDS011;13578;53.450;15.496;2023-04-24T09:09:11;7.50;;;4.00;;
25721;SDS011;13578;53.450;15.496;2023-04-24T09:12:12;8.80;;;4.15;;
25721;SDS011;13578;53.450;15.496;2023-04-24T09:15:12;7.35;;;3.90;;
25721;SDS011;13578;53.450;15.496;2023-04-24T09:18:13;6.50;;;3.58;;
25721;SDS011;13578;53.450;15.496;2023-04-24T09:21:14;6.80;;;4.38;;
25721;SDS011;13578;53.450;15.496;2023-04-24T09:24:15;6.50;;;3.40;;
25721;SDS011;13578;53.450;15.496;2023-04-24T09:27:23;4.15;;;2.72;;
25721;SDS011;13578;53.450;15.496;2023-04-24T09:30:23;7.15;;;3.22;;
25721;SDS011;13578;53.450;15.496;2023-04-24T09:33:24;4.60;;;3.13;;
25721;SDS011;13578;53.450;15.496;2023-04-24T09:36:28;4.88;;;3.13;;
25721;SDS011;13578;53.450;15.496;2023-04-24T09:39:32;5.47;;;3.15;;
25721;SDS011;13578;53.450;15.496;2023-04-24T09:42:33;10.50;;;3.80;;
25721;SDS011;13578;53.450;15.496;2023-04-24T09:45:37;14.02;;;3.30;;
25721;SDS011;13578;53.450;15.496;2023-04-24T09:48:40;4.25;;;3.08;;
25721;SDS011;13578;53.450;15.496;2023-04-24T09:51:41;7.35;;;4.30;;
25721;SDS011;13578;53.450;15.496;2023-04-24T09:54:43;11.38;;;3.72;;
25721;SDS011;13578;53.450;15.496;2023-04-24T09:58:00;4.40;;;3.20;;
25721;SDS011;13578;53.450;15.496;2023-04-24T10:01:05;6.78;;;3.38;;
25721;SDS011;13578;53.450;15.496;2023-04-24T10:04:05;4.63;;;3.53;;
25721;SDS011;13578;53.450;15.496;2023-04-24T10:07:06;6.45;;;3.78;;
25721;SDS011;13578;53.450;15.496;2023-04-24T10:10:10;7.68;;;3.80;;
25721;SDS011;13578;53.450;15.496;2023-04-24T10:13:12;7.13;;;3.90;;
25721;SDS011;13578;53.450;15.496;2023-04-24T10:16:14;6.68;;;3.88;;
25721;SDS011;13578;53.450;15.496;2023-04-24T10:19:16;6.95;;;3.90;;
25721;SDS011;13578;53.450;15.496;2023-04-24T10:22:18;4.95;;;2.97;;
25721;SDS011;13578;53.450;15.496;2023-04-24T10:25:20;4.47;;;2.65;;
25721;SDS011;13578;53.450;15.496;2023-04-24T10:28:22;4.90;;;2.35;;
25721;SDS011;13578;53.450;15.496;2023-04-24T10:31:24;3.13;;;2.13;;
25721;SDS011;13578;53.450;15.496;2023-04-24T10:34:26;3.85;;;2.20;;
25721;SDS011;13578;53.450;15.496;2023-04-24T10:37:28;4.93;;;1.90;;
25721;SDS011;13578;53.450;15.496;2023-04-24T10:40:39;2.47;;;1.40;;
25721;SDS011;13578;53.450;15.496;2023-04-24T10:43:40;3.22;;;1.63;;
25721;SDS011;13578;53.450;15.496;2023-04-24T10:46:45;4.90;;;1.70;;
25721;SDS011;13578;53.450;15.496;2023-04-24T10:49:50;2.47;;;1.70;;
25721;SDS011;13578;53.450;15.496;2023-04-24T10:52:51;2.42;;;1.45;;
25721;SDS011;13578;53.450;15.496;2023-04-24T10:55:58;4.60;;;1.67;;
25721;SDS011;13578;53.450;15.496;2023-04-24T10:59:03;3.88;;;1.60;;
25721;SDS011;13578;53.450;15.496;2023-04-24T11:02:09;3.47;;;1.80;;
25721;SDS011;13578;53.450;15.496;2023-04-24T11:05:10;3.22;;;2.03;;
25721;SDS011;13578;53.450;15.496;2023-04-24T11:08:12;2.30;;;1.70;;
25721;SDS011;13578;53.450;15.496;2023-04-24T11:11:13;4.22;;;1.95;;
25721;SDS011;13578;53.450;15.496;2023-04-24T11:14:18;7.13;;;1.95;;
25721;SDS011;13578;53.450;15.496;2023-04-24T11:17:28;3.80;;;2.55;;
25721;SDS011;13578;53.450;15.496;2023-04-24T11:20:33;11.17;;;2.50;;
25721;SDS011;13578;53.450;15.496;2023-04-24T11:23:35;2.13;;;1.40;;
25721;SDS011;13578;53.450;15.496;2023-04-24T11:26:37;3.33;;;1.90;;
25721;SDS011;13578;53.450;15.496;2023-04-24T11:29:46;3.05;;;2.08;;
25721;SDS011;13578;53.450;15.496;2023-04-24T11:32:56;3.22;;;2.10;;
25721;SDS011;13578;53.450;15.496;2023-04-24T11:36:03;2.88;;;1.77;;
25721;SDS011;13578;53.450;15.496;2023-04-24T11:39:03;3.92;;;1.90;;
25721;SDS011;13578;53.450;15.496;2023-04-24T11:42:05;2.83;;;1.77;;
25721;SDS011;13578;53.450;15.496;2023-04-24T11:45:08;3.95;;;2.33;;
25721;SDS011;13578;53.450;15.496;2023-04-24T11:48:18;5.20;;;1.70;;
25721;SDS011;13578;53.450;15.496;2023-04-24T11:51:19;5.38;;;2.00;;
25721;SDS011;13578;53.450;15.496;2023-04-24T11:54:21;2.95;;;2.05;;
25721;SDS011;13578;53.450;15.496;2023-04-24T11:57:23;7.82;;;2.90;;
25721;SDS011;13578;53.450;15.496;2023-04-24T12:00:29;4.45;;;2.33;;
25721;SDS011;13578;53.450;15.496;2023-04-24T12:03:33;4.00;;;1.93;;
25721;SDS011;13578;53.450;15.496;2023-04-24T12:06:34;5.47;;;1.98;;
25721;SDS011;13578;53.450;15.496;2023-04-24T12:09:42;4.07;;;1.60;;
25721;SDS011;13578;53.450;15.496;2023-04-24T12:12:44;5.35;;;1.90;;
25721;SDS011;13578;53.450;15.496;2023-04-24T12:15:46;2.22;;;1.60;;
25721;SDS011;13578;53.450;15.496;2023-04-24T12:18:47;2.83;;;1.60;;
25721;SDS011;13578;53.450;15.496;2023-04-24T12:22:00;4.90;;;1.63;;
25721;SDS011;13578;53.450;15.496;2023-04-24T12:25:09;3.60;;;1.77;;
25721;SDS011;13578;53.450;15.496;2023-04-24T12:28:11;2.05;;;1.30;;
25721;SDS011;13578;53.450;15.496;2023-04-24T12:31:13;3.63;;;2.08;;
25721;SDS011;13578;53.450;15.496;2023-04-24T12:34:20;2.92;;;1.60;;
25721;SDS011;13578;53.450;15.496;2023-04-24T12:37:25;2.95;;;1.23;;
25721;SDS011;13578;53.450;15.496;2023-04-24T12:40:32;2.17;;;1.00;;
25721;SDS011;13578;53.450;15.496;2023-04-24T12:43:33;3.78;;;1.48;;
25721;SDS011;13578;53.450;15.496;2023-04-24T12:46:34;1.70;;;1.13;;
25721;SDS011;13578;53.450;15.496;2023-04-24T12:49:34;2.53;;;1.08;;
25721;SDS011;13578;53.450;15.496;2023-04-24T12:52:35;2.72;;;1.13;;
25721;SDS011;13578;53.450;15.496;2023-04-24T12:55:36;1.58;;;0.88;;
25721;SDS011;13578;53.450;15.496;2023-04-24T12:58:37;2.65;;;0.88;;
25721;SDS011;13578;53.450;15.496;2023-04-24T13:01:38;3.45;;;0.90;;
25721;SDS011;13578;53.450;15.496;2023-04-24T13:04:38;2.03;;;0.90;;
25721;SDS011;13578;53.450;15.496;2023-04-24T13:07:39;0.80;;;0.43;;
25721;SDS011;13578;53.450;15.496;2023-04-24T13:10:40;0.80;;;0.60;;
25721;SDS011;13578;53.450;15.496;2023-04-24T13:13:41;1.33;;;0.55;;
25721;SDS011;13578;53.450;15.496;2023-04-24T13:16:41;0.63;;;0.40;;
25721;SDS011;13578;53.450;15.496;2023-04-24T13:19:42;1.17;;;0.50;;
25721;SDS011;13578;53.450;15.496;2023-04-24T13:22:43;0.82;;;0.30;;
25721;SDS011;13578;53.450;15.496;2023-04-24T13:25:44;0.82;;;0.30;;
25721;SDS011;13578;53.450;15.496;2023-04-24T13:28:45;1.13;;;0.47;;
25721;SDS011;13578;53.450;15.496;2023-04-24T13:31:46;0.93;;;0.47;;
25721;SDS011;13578;53.450;15.496;2023-04-24T13:34:47;0.70;;;0.28;;
25721;SDS011;13578;53.450;15.496;2023-04-24T13:37:47;1.90;;;0.40;;
25721;SDS011;13578;53.450;15.496;2023-04-24T13:40:48;0.73;;;0.30;;
25721;SDS011;13578;53.450;15.496;2023-04-24T13:43:49;0.90;;;0.50;;
25721;SDS011;13578;53.450;15.496;2023-04-24T13:46:51;4.93;;;0.60;;
25721;SDS011;13578;53.450;15.496;2023-04-24T13:49:54;0.93;;;0.30;;
25721;SDS011;13578;53.450;15.496;2023-04-24T13:52:54;0.57;;;0.28;;
25721;SDS011;13578;53.450;15.496;2023-04-24T13:55:56;0.73;;;0.30;;
25721;SDS011;13578;53.450;15.496;2023-04-24T13:58:57;0.50;;;0.15;;
25721;SDS011;13578;53.450;15.496;2023-04-24T14:01:58;0.93;;;0.17;;
25721;SDS011;13578;53.450;15.496;2023-04-24T14:04:58;0.30;;;0.20;;
25721;SDS011;13578;53.450;15.496;2023-04-24T14:07:59;0.50;;;0.30;;
25721;SDS011;13578;53.450;15.496;2023-04-24T14:11:00;0.82;;;0.40;;
25721;SDS011;13578;53.450;15.496;2023-04-24T14:14:00;0.70;;;0.30;;
25721;SDS011;13578;53.450;15.496;2023-04-24T14:17:01;0.47;;;0.20;;
25721;SDS011;13578;53.450;15.496;2023-04-24T14:20:01;0.40;;;0.15;;
25721;SDS011;13578;53.450;15.496;2023-04-24T14:23:03;1.95;;;0.20;;
25721;SDS011;13578;53.450;15.496;2023-04-24T14:26:04;1.13;;;0.30;;
25721;SDS011;13578;53.450;15.496;2023-04-24T14:29:05;0.82;;;0.30;;
25721;SDS011;13578;53.450;15.496;2023-04-24T14:32:05;4.35;;;0.60;;
25721;SDS011;13578;53.450;15.496;2023-04-24T14:35:06;2.80;;;0.25;;
25721;SDS011;13578;53.450;15.496;2023-04-24T14:38:07;0.80;;;0.35;;
25721;SDS011;13578;53.450;15.496;2023-04-24T14:41:08;0.47;;;0.10;;
25721;SDS011;13578;53.450;15.496;2023-04-24T14:44:10;2.78;;;0.35;;
25721;SDS011;13578;53.450;15.496;2023-04-24T14:47:10;1.42;;;0.20;;
25721;SDS011;13578;53.450;15.496;2023-04-24T14:50:11;0.35;;;0.10;;
25721;SDS011;13578;53.450;15.496;2023-04-24T14:53:12;0.30;;;0.20;;
25721;SDS011;13578;53.450;15.496;2023-04-24T14:56:13;1.15;;;0.30;;
25721;SDS011;13578;53.450;15.496;2023-04-24T14:59:14;1.17;;;0.15;;
25721;SDS011;13578;53.450;15.496;2023-04-24T15:02:15;1.13;;;0.30;;
25721;SDS011;13578;53.450;15.496;2023-04-24T15:05:16;1.95;;;0.38;;
25721;SDS011;13578;53.450;15.496;2023-04-24T15:08:16;1.17;;;0.22;;
25721;SDS011;13578;53.450;15.496;2023-04-24T15:11:17;1.23;;;0.30;;
25721;SDS011;13578;53.450;15.496;2023-04-24T15:14:18;0.52;;;0.30;;
25721;SDS011;13578;53.450;15.496;2023-04-24T15:17:18;1.25;;;0.28;;
25721;SDS011;13578;53.450;15.496;2023-04-24T15:20:19;0.38;;;0.20;;
25721;SDS011;13578;53.450;15.496;2023-04-24T15:23:19;0.60;;;0.30;;
25721;SDS011;13578;53.450;15.496;2023-04-24T15:26:20;1.42;;;0.13;;
25721;SDS011;13578;53.450;15.496;2023-04-24T15:29:21;2.72;;;0.60;;
25721;SDS011;13578;53.450;15.496;2023-04-24T15:32:22;1.13;;;0.10;;
25721;SDS011;13578;53.450;15.496;2023-04-24T15:35:22;1.98;;;0.30;;
25721;SDS011;13578;53.450;15.496;2023-04-24T15:38:23;0.47;;;0.25;;
25721;SDS011;13578;53.450;15.496;2023-04-24T15:41:24;0.70;;;0.20;;
25721;SDS011;13578;53.450;15.496;2023-04-24T15:44:24;0.98;;;0.30;;
25721;SDS011;13578;53.450;15.496;2023-04-24T15:47:25;1.60;;;0.30;;
25721;SDS011;13578;53.450;15.496;2023-04-24T15:50:26;0.60;;;0.30;;
25721;SDS011;13578;53.450;15.496;2023-04-24T15:53:26;5.63;;;0.75;;
25721;SDS011;13578;53.450;15.496;2023-04-24T15:56:27;1.73;;;0.50;;
25721;SDS011;13578;53.450;15.496;2023-04-24T15:59:28;1.00;;;0.47;;
25721;SDS011;13578;53.450;15.496;2023-04-24T16:02:30;1.80;;;0.50;;
25721;SDS011;13578;53.450;15.496;2023-04-24T16:05:30;0.60;;;0.32;;
25721;SDS011;13578;53.450;15.496;2023-04-24T16:08:31;1.63;;;0.40;;
25721;SDS011;13578;53.450;15.496;2023-04-24T16:11:32;0.45;;;0.30;;
25721;SDS011;13578;53.450;15.496;2023-04-24T16:14:36;0.32;;;0.28;;
25721;SDS011;13578;53.450;15.496;2023-04-24T16:17:37;0.77;;;0.68;;
25721;SDS011;13578;53.450;15.496;2023-04-24T16:20:37;1.67;;;0.47;;
25721;SDS011;13578;53.450;15.496;2023-04-24T16:23:38;0.98;;;0.40;;
25721;SDS011;13578;53.450;15.496;2023-04-24T16:26:39;2.55;;;0.85;;
25721;SDS011;13578;53.450;15.496;2023-04-24T16:29:40;0.50;;;0.40;;
25721;SDS011;13578;53.450;15.496;2023-04-24T16:32:40;3.05;;;0.50;;
25721;SDS011;13578;53.450;15.496;2023-04-24T16:35:41;0.40;;;0.30;;
25721;SDS011;13578;53.450;15.496;2023-04-24T16:38:43;1.13;;;0.55;;
25721;SDS011;13578;53.450;15.496;2023-04-24T16:41:43;2.80;;;0.30;;
25721;SDS011;13578;53.450;15.496;2023-04-24T16:44:44;0.50;;;0.40;;
25721;SDS011;13578;53.450;15.496;2023-04-24T16:47:46;0.40;;;0.30;;
25721;SDS011;13578;53.450;15.496;2023-04-24T16:50:46;0.65;;;0.30;;
25721;SDS011;13578;53.450;15.496;2023-04-24T16:53:47;0.77;;;0.52;;
25721;SDS011;13578;53.450;15.496;2023-04-24T16:56:48;0.38;;;0.25;;
25721;SDS011;13578;53.450;15.496;2023-04-24T16:59:48;3.58;;;0.40;;
25721;SDS011;13578;53.450;15.496;2023-04-24T17:02:49;0.85;;;0.45;;
25721;SDS011;13578;53.450;15.496;2023-04-24T17:05:49;0.88;;;0.40;;
25721;SDS011;13578;53.450;15.496;2023-04-24T17:08:50;1.30;;;0.30;;
25721;SDS011;13578;53.450;15.496;2023-04-24T17:11:51;0.60;;;0.40;;
25721;SDS011;13578;53.450;15.496;2023-04-24T17:14:51;0.60;;;0.47;;
25721;SDS011;13578;53.450;15.496;2023-04-24T17:17:52;0.60;;;0.40;;
25721;SDS011;13578;53.450;15.496;2023-04-24T17:20:53;1.15;;;0.40;;
25721;SDS011;13578;53.450;15.496;2023-04-24T17:23:53;0.65;;;0.40;;
25721;SDS011;13578;53.450;15.496;2023-04-24T17:26:54;0.40;;;0.30;;
25721;SDS011;13578;53.450;15.496;2023-04-24T17:29:55;1.30;;;0.55;;
25721;SDS011;13578;53.450;15.496;2023-04-24T17:33:00;1.10;;;0.60;;
25721;SDS011;13578;53.450;15.496;2023-04-24T17:36:01;2.13;;;0.40;;
25721;SDS011;13578;53.450;15.496;2023-04-24T17:39:02;3.33;;;0.63;;
25721;SDS011;13578;53.450;15.496;2023-04-24T17:42:03;1.70;;;0.40;;
25721;SDS011;13578;53.450;15.496;2023-04-24T17:45:03;2.13;;;0.60;;
25721;SDS011;13578;53.450;15.496;2023-04-24T17:48:05;0.98;;;0.68;;